Time;durP1;ratioP1;P1;durP2;ratioP2;P2;SDS_P1;SDS_P2;PMS_P1;PMS_P2;Temp;Humidity;BMP_temperature;BMP_pressure;BME280_temperature;BME280_humidity;BME280_pressure;Samples;Min_cycle;Max_cycle;Signal;HPM_P1;HPM_P2
2023/01/08 00:02:21;;;;;;;;;;;12.50;99.90;;;;;;5051319;28;19912;-69
2023/01/08 00:04:47;;;;;;;;;;;12.50;99.90;;;;;;5032669;28;19950;-70
2023/01/08 00:07:13;;;;;;;;;;;12.50;99.90;;;;;;5051536;28;19909;-70
2023/01/08 00:09:38;;;;;;;;;;;12.50;99.90;;;;;;5051359;28;19947;-70
2023/01/08 00:12:04;;;;;;;;;;;12.60;99.90;;;;;;5051072;28;19986;-70
2023/01/08 00:14:30;;;;;;;;;;;12.60;99.90;;;;;;5050036;28;19923;-70
2023/01/08 00:16:56;;;;;;;;;;;12.70;99.90;;;;;;5051383;28;19916;-70
2023/01/08 00:19:22;;;;;;;;;;;12.70;99.90;;;;;;5051694;28;20360;-69
2023/01/08 00:21:48;;;;;;;;;;;12.70;99.90;;;;;;5050082;28;20349;-69
2023/01/08 00:24:15;;;;;;;;;;;12.60;99.90;;;;;;5051651;28;19913;-69
2023/01/08 00:26:41;;;;;;;;;;;12.60;99.90;;;;;;5033100;28;19917;-69
2023/01/08 00:29:06;;;;;;;;;;;12.60;99.90;;;;;;5049613;28;20249;-69
2023/01/08 00:31:32;;;;;;;;;;;12.70;99.90;;;;;;5051009;28;19913;-70
2023/01/08 00:33:58;;;;;;;;;;;12.80;99.90;;;;;;5053772;28;19917;-70
2023/01/08 00:36:24;;;;;;;;;;;12.80;99.90;;;;;;5055303;28;19904;-70
2023/01/08 00:38:50;;;;;;;;;;;12.80;99.90;;;;;;5054982;28;19908;-70
2023/01/08 00:41:15;;;;;;;;;;;12.90;99.90;;;;;;5054747;28;20103;-69
2023/01/08 00:43:41;;;;;;;;;;;12.90;99.90;;;;;;5054598;28;19992;-69
2023/01/08 00:46:07;;;;;;;;;;;12.80;99.90;;;;;;5054633;28;19905;-66
2023/01/08 00:48:37;;;;;;;;;;;12.80;99.90;;;;;;5055024;28;19905;-70
2023/01/08 00:51:03;;;;;;;;;;;12.80;99.90;;;;;;5054476;28;19917;-70
2023/01/08 00:53:29;;;;;;;;;;;12.70;99.90;;;;;;5054510;28;20268;-69
2023/01/08 00:55:59;;;;;;;;;;;12.70;99.90;;;;;;5054315;28;19992;-69
2023/01/08 00:58:24;;;;;;;;;;;12.60;99.90;;;;;;5054596;28;19904;-69
2023/01/08 01:00:50;;;;;;;;;;;12.50;99.90;;;;;;5054399;28;20371;-69
2023/01/08 01:03:16;;;;;;;;;;;12.50;99.90;;;;;;5054319;28;19905;-69
2023/01/08 01:05:42;;;;;;;;;;;12.50;99.90;;;;;;5054213;28;19913;-69
2023/01/08 01:08:07;;;;;;;;;;;12.60;99.90;;;;;;5054246;28;20389;-66
2023/01/08 01:10:33;;;;;;;;;;;12.60;99.90;;;;;;5058904;28;19927;-69
2023/01/08 01:12:59;;;;;;;;;;;12.60;99.90;;;;;;5073787;28;19964;-69
2023/01/08 01:15:25;;;;;;;;;;;12.60;99.90;;;;;;5074310;28;19927;-69
2023/01/08 01:17:52;;;;;;;;;;;12.60;99.90;;;;;;5055892;28;20012;-69
2023/01/08 01:20:18;;;;;;;;;;;12.60;99.90;;;;;;5074114;28;19910;-69
2023/01/08 01:22:44;;;;;;;;;;;12.60;99.90;;;;;;5073966;28;19904;-70
2023/01/08 01:25:12;;;;;;;;;;;12.70;99.90;;;;;;5073686;28;19908;-69
2023/01/08 01:27:37;;;;;;;;;;;12.70;99.90;;;;;;5073665;28;19916;-69
2023/01/08 01:30:05;;;;;;;;;;;12.70;99.90;;;;;;5073555;28;20322;-68
2023/01/08 01:32:41;;;;;;;;;;;12.80;99.90;;;;;;5038708;28;19919;-69
2023/01/08 01:35:07;;;;;;;;;;;12.80;99.90;;;;;;5053846;28;19911;-69
2023/01/08 01:37:33;;;;;;;;;;;12.80;99.90;;;;;;5053257;28;19999;-69
2023/01/08 01:39:59;;;;;;;;;;;12.90;99.90;;;;;;5053954;28;19909;-69
2023/01/08 01:42:42;;;;;;;;;;;12.90;99.90;;;;;;5073113;28;19991;-69
2023/01/08 01:45:20;;;;;;;;;;;12.90;99.90;;;;;;5073928;28;19911;-69
2023/01/08 01:47:54;;;;;;;;;;;12.80;99.90;;;;;;5073326;28;19904;-69
2023/01/08 01:50:27;;;;;;;;;;;12.80;99.90;;;;;;5073035;28;20360;-69
2023/01/08 01:53:08;;;;;;;;;;;12.70;99.90;;;;;;5073295;28;19916;-69
2023/01/08 01:55:37;;;;;;;;;;;12.80;99.90;;;;;;5073139;28;19905;-69
2023/01/08 01:58:13;;;;;;;;;;;12.80;99.90;;;;;;5073057;28;19940;-69
2023/01/08 02:00:39;;;;;;;;;;;12.80;99.90;;;;;;5072299;28;20015;-70
2023/01/08 02:03:05;;;;;;;;;;;12.80;99.90;;;;;;5053109;28;20000;-69
2023/01/08 02:05:46;;;;;;;;;;;12.80;99.90;;;;;;5052769;28;19909;-69
2023/01/08 02:08:17;;;;;;;;;;;12.80;99.90;;;;;;5053173;28;20463;-69
2023/01/08 02:11:12;;;;;;;;;;;12.80;99.90;;;;;;5059042;28;19935;-70
2023/01/08 02:13:39;;;;;;;;;;;12.80;99.90;;;;;;5001163;28;20307;-69
2023/01/08 02:16:11;;;;;;;;;;;12.80;99.90;;;;;;5061194;28;19962;-68
2023/01/08 02:18:36;;;;;;;;;;;12.80;99.90;;;;;;5052625;28;20002;-69
2023/01/08 02:21:05;;;;;;;;;;;12.80;99.90;;;;;;5052708;28;19920;-69
2023/01/08 02:23:55;;;;;;;;;;;12.80;99.90;;;;;;5052712;28;19923;-69
2023/01/08 02:26:28;;;;;;;;;;;12.80;99.90;;;;;;5052710;28;19955;-69
2023/01/08 02:29:04;;;;;;;;;;;12.80;99.90;;;;;;5052844;28;19904;-69
2023/01/08 02:31:31;;;;;;;;;;;12.80;99.90;;;;;;5052452;28;19990;-70
2023/01/08 02:33:57;;;;;;;;;;;12.80;99.90;;;;;;5052529;28;19931;-70
2023/01/08 02:36:41;;;;;;;;;;;12.80;99.90;;;;;;5052448;28;19909;-70
2023/01/08 02:39:25;;;;;;;;;;;12.80;99.90;;;;;;5052637;28;19946;-70
2023/01/08 02:41:51;;;;;;;;;;;12.70;99.90;;;;;;5068117;28;19908;-71
2023/01/08 02:44:21;;;;;;;;;;;12.70;99.90;;;;;;5053733;28;19912;-66
2023/01/08 02:46:49;;;;;;;;;;;12.70;99.90;;;;;;5072117;28;19973;-70
2023/01/08 02:49:15;;;;;;;;;;;12.70;99.90;;;;;;5072536;28;19912;-70
2023/01/08 02:51:48;;;;;;;;;;;12.70;99.90;;;;;;5072047;28;19991;-70
2023/01/08 02:54:24;;;;;;;;;;;12.70;99.90;;;;;;5072378;28;20006;-70
2023/01/08 02:56:56;;;;;;;;;;;12.70;99.90;;;;;;5071529;28;19995;-70
2023/01/08 02:59:23;;;;;;;;;;;12.60;99.90;;;;;;5072655;28;19908;-69
2023/01/08 03:01:49;;;;;;;;;;;12.60;99.90;;;;;;5061219;28;19908;-70
2023/01/08 03:04:19;;;;;;;;;;;12.60;99.90;;;;;;5045063;28;20429;-69
2023/01/08 03:07:06;;;;;;;;;;;12.60;99.90;;;;;;5052341;28;19974;-65
2023/01/08 03:09:31;;;;;;;;;;;12.50;99.90;;;;;;5043289;28;19917;-69
2023/01/08 03:12:24;;;;;;;;;;;12.50;99.90;;;;;;5051685;28;19954;-70
2023/01/08 03:15:21;;;;;;;;;;;12.50;99.90;;;;;;5039353;28;20217;-64
2023/01/08 03:17:48;;;;;;;;;;;12.50;99.90;;;;;;5052158;28;19917;-68
2023/01/08 03:20:15;;;;;;;;;;;12.50;99.90;;;;;;5049993;28;20384;-70
2023/01/08 03:22:43;;;;;;;;;;;12.50;99.90;;;;;;5051443;28;20332;-69
2023/01/08 03:25:10;;;;;;;;;;;12.50;99.90;;;;;;5050159;28;19915;-69
2023/01/08 03:27:39;;;;;;;;;;;12.50;99.90;;;;;;5050843;28;19905;-70
2023/01/08 03:30:06;;;;;;;;;;;12.50;99.90;;;;;;5048573;28;19959;-65
2023/01/08 03:32:32;;;;;;;;;;;12.50;99.90;;;;;;5051200;28;19905;-70
2023/01/08 03:34:59;;;;;;;;;;;12.60;99.90;;;;;;5051693;28;20354;-65
2023/01/08 03:37:29;;;;;;;;;;;12.60;99.90;;;;;;5051476;28;19980;-69
2023/01/08 03:39:59;;;;;;;;;;;12.60;99.90;;;;;;5051609;28;19995;-69
2023/01/08 03:42:26;;;;;;;;;;;12.60;99.90;;;;;;5030125;28;19905;-70
2023/01/08 03:44:56;;;;;;;;;;;12.60;99.90;;;;;;5031653;28;20368;-70
2023/01/08 03:47:24;;;;;;;;;;;12.60;99.90;;;;;;5031409;28;19935;-70
2023/01/08 03:49:52;;;;;;;;;;;12.60;99.90;;;;;;5031424;28;19963;-70
2023/01/08 03:52:25;;;;;;;;;;;12.60;99.90;;;;;;5031185;28;19916;-70
2023/01/08 03:54:51;;;;;;;;;;;12.70;99.90;;;;;;5031335;28;19913;-70
2023/01/08 03:57:17;;;;;;;;;;;12.70;99.90;;;;;;5031218;28;19904;-69
2023/01/08 03:59:56;;;;;;;;;;;12.70;99.90;;;;;;5012507;28;20237;-65
2023/01/08 04:02:21;;;;;;;;;;;12.70;99.90;;;;;;5046226;28;20394;-70
2023/01/08 04:04:47;;;;;;;;;;;12.70;99.90;;;;;;5051240;28;19904;-69
2023/01/08 04:07:15;;;;;;;;;;;12.70;99.90;;;;;;5050905;28;19905;-71
2023/01/08 04:09:41;;;;;;;;;;;12.70;99.90;;;;;;5034634;28;19920;-69
2023/01/08 04:12:07;;;;;;;;;;;12.70;99.90;;;;;;5073395;28;20390;-69
2023/01/08 04:14:36;;;;;;;;;;;12.70;99.90;;;;;;5075111;28;19944;-69
2023/01/08 04:17:02;;;;;;;;;;;12.70;99.90;;;;;;5075424;28;19908;-69
2023/01/08 04:19:28;;;;;;;;;;;12.70;99.90;;;;;;5075104;28;19956;-70
2023/01/08 04:21:55;;;;;;;;;;;12.70;99.90;;;;;;5074949;28;19905;-69
2023/01/08 04:24:20;;;;;;;;;;;12.70;99.90;;;;;;5075072;28;19908;-69
2023/01/08 04:26:47;;;;;;;;;;;12.70;99.90;;;;;;5074971;28;19986;-70
2023/01/08 04:29:13;;;;;;;;;;;12.70;99.90;;;;;;5056957;28;19934;-69
2023/01/08 04:31:39;;;;;;;;;;;12.70;99.90;;;;;;5065236;28;19912;-69
2023/01/08 04:34:04;;;;;;;;;;;12.70;99.90;;;;;;5054835;28;19905;-70
2023/01/08 04:36:31;;;;;;;;;;;12.70;99.90;;;;;;5054788;28;19905;-69
2023/01/08 04:38:57;;;;;;;;;;;12.70;99.90;;;;;;5055000;28;20297;-70
2023/01/08 04:41:23;;;;;;;;;;;12.70;99.90;;;;;;5066587;28;19912;-71
2023/01/08 04:43:48;;;;;;;;;;;12.70;99.90;;;;;;5067515;28;19970;-70
2023/01/08 04:46:15;;;;;;;;;;;12.60;99.90;;;;;;5054869;28;19905;-70
2023/01/08 04:48:41;;;;;;;;;;;12.60;99.90;;;;;;5054710;28;19909;-69
2023/01/08 04:51:07;;;;;;;;;;;12.60;99.90;;;;;;5054434;28;19935;-70
2023/01/08 04:53:34;;;;;;;;;;;12.60;99.90;;;;;;5054739;28;19935;-70
2023/01/08 04:56:04;;;;;;;;;;;12.60;99.90;;;;;;5054421;28;19946;-69
2023/01/08 04:58:32;;;;;;;;;;;12.70;99.90;;;;;;5053998;28;19927;-69
2023/01/08 05:01:00;;;;;;;;;;;12.70;99.90;;;;;;5054220;28;19912;-69
2023/01/08 05:03:25;;;;;;;;;;;12.70;99.90;;;;;;5054533;28;20341;-70
2023/01/08 05:05:52;;;;;;;;;;;12.60;99.90;;;;;;5054318;28;19915;-70
2023/01/08 05:08:19;;;;;;;;;;;12.60;99.90;;;;;;5054410;28;20222;-70
2023/01/08 05:10:45;;;;;;;;;;;12.60;99.90;;;;;;5035552;28;20253;-69
2023/01/08 05:13:12;;;;;;;;;;;12.60;99.90;;;;;;5053918;28;20412;-70
2023/01/08 05:15:40;;;;;;;;;;;12.50;99.90;;;;;;5054559;28;20008;-69
2023/01/08 05:18:06;;;;;;;;;;;12.50;99.90;;;;;;5036088;28;19904;-70
2023/01/08 05:20:31;;;;;;;;;;;12.50;99.90;;;;;;5053868;28;20355;-69
2023/01/08 05:22:58;;;;;;;;;;;12.40;99.90;;;;;;5053850;28;19905;-66
2023/01/08 05:25:25;;;;;;;;;;;12.40;99.90;;;;;;5053693;28;20264;-70
2023/01/08 05:27:51;;;;;;;;;;;12.40;99.90;;;;;;5053557;28;19953;-69
2023/01/08 05:30:17;;;;;;;;;;;12.40;99.90;;;;;;5053559;28;20058;-70
2023/01/08 05:32:43;;;;;;;;;;;12.30;99.90;;;;;;5053622;28;19905;-68
2023/01/08 05:35:09;;;;;;;;;;;12.30;99.90;;;;;;5053748;28;19932;-70
2023/01/08 05:37:35;;;;;;;;;;;12.30;99.90;;;;;;5053812;28;19905;-69
2023/01/08 05:40:01;;;;;;;;;;;12.30;99.90;;;;;;5053578;28;19912;-70
2023/01/08 05:42:27;;;;;;;;;;;12.30;99.90;;;;;;5053608;28;20375;-70
2023/01/08 05:44:53;;;;;;;;;;;12.30;99.90;;;;;;5053541;28;19905;-69
2023/01/08 05:47:18;;;;;;;;;;;12.30;99.90;;;;;;5053399;28;19955;-69
2023/01/08 05:49:44;;;;;;;;;;;12.30;99.90;;;;;;5035157;28;19958;-70
2023/01/08 05:52:11;;;;;;;;;;;12.20;99.90;;;;;;5053177;28;19945;-70
2023/01/08 05:54:36;;;;;;;;;;;12.20;99.90;;;;;;5053423;28;19904;-69
2023/01/08 05:57:03;;;;;;;;;;;12.20;99.90;;;;;;5052911;28;19950;-70
2023/01/08 05:59:28;;;;;;;;;;;12.20;99.90;;;;;;5035323;28;19953;-70
2023/01/08 06:01:56;;;;;;;;;;;12.20;99.90;;;;;;5053155;28;19999;-71
2023/01/08 06:04:21;;;;;;;;;;;12.30;99.90;;;;;;5052127;28;19910;-69
2023/01/08 06:06:47;;;;;;;;;;;12.20;99.90;;;;;;5035037;28;20272;-70
2023/01/08 06:09:14;;;;;;;;;;;12.30;99.90;;;;;;5052714;28;19983;-70
2023/01/08 06:11:40;;;;;;;;;;;12.30;99.90;;;;;;5032561;28;20396;-70
2023/01/08 06:14:06;;;;;;;;;;;12.40;99.90;;;;;;5053094;28;19912;-70
2023/01/08 06:16:32;;;;;;;;;;;12.40;99.90;;;;;;5053279;28;19909;-70
2023/01/08 06:18:58;;;;;;;;;;;12.40;99.90;;;;;;5052860;28;19923;-70
2023/01/08 06:21:24;;;;;;;;;;;12.40;99.90;;;;;;5052893;28;20331;-70
2023/01/08 06:23:51;;;;;;;;;;;12.50;99.90;;;;;;5049920;28;19909;-70
2023/01/08 06:26:17;;;;;;;;;;;12.50;99.90;;;;;;5053121;28;20344;-69
2023/01/08 06:28:43;;;;;;;;;;;12.50;99.90;;;;;;5052210;28;19905;-70
2023/01/08 06:31:09;;;;;;;;;;;12.50;99.90;;;;;;5051770;28;19912;-70
2023/01/08 06:33:35;;;;;;;;;;;12.50;99.90;;;;;;5052656;28;20037;-69
2023/01/08 06:36:03;;;;;;;;;;;12.50;99.90;;;;;;5035168;28;19982;-70
2023/01/08 06:38:32;;;;;;;;;;;12.50;99.90;;;;;;5052670;28;19905;-70
2023/01/08 06:41:01;;;;;;;;;;;12.60;99.90;;;;;;5061196;28;20375;-71
2023/01/08 06:43:27;;;;;;;;;;;12.60;99.90;;;;;;5072311;28;20003;-70
2023/01/08 06:45:53;;;;;;;;;;;12.60;99.90;;;;;;5072558;28;19958;-71
2023/01/08 06:48:19;;;;;;;;;;;12.60;99.90;;;;;;5072579;28;19923;-71
2023/01/08 06:50:45;;;;;;;;;;;12.60;99.90;;;;;;5072099;28;19912;-71
2023/01/08 06:53:11;;;;;;;;;;;12.60;99.90;;;;;;5072269;28;20335;-71
2023/01/08 06:55:38;;;;;;;;;;;12.60;99.90;;;;;;5054064;28;19904;-71
2023/01/08 06:58:03;;;;;;;;;;;12.70;99.90;;;;;;5071984;28;19905;-71
2023/01/08 07:00:29;;;;;;;;;;;12.60;99.90;;;;;;5053587;28;19904;-71
2023/01/08 07:02:55;;;;;;;;;;;12.60;99.90;;;;;;5051621;28;19911;-70
2023/01/08 07:05:21;;;;;;;;;;;12.60;99.90;;;;;;5051726;28;19972;-70
2023/01/08 07:07:47;;;;;;;;;;;12.60;99.90;;;;;;5051734;28;19905;-71
2023/01/08 07:10:13;;;;;;;;;;;12.70;99.90;;;;;;5051568;28;19996;-71
2023/01/08 07:12:39;;;;;;;;;;;13.20;99.90;;;;;;5051874;28;19905;-72
2023/01/08 07:15:05;;;;;;;;;;;13.70;99.90;;;;;;5058170;28;20263;-71
2023/01/08 07:17:31;;;;;;;;;;;14.30;99.90;;;;;;5051841;28;19904;-71
2023/01/08 07:19:57;;;;;;;;;;;15.50;99.90;;;;;;5052132;28;19985;-71
2023/01/08 07:22:24;;;;;;;;;;;16.50;99.90;;;;;;5052279;28;19938;-71
2023/01/08 07:24:50;;;;;;;;;;;16.90;99.90;;;;;;5052207;28;19921;-70
2023/01/08 07:27:16;;;;;;;;;;;17.10;99.90;;;;;;5052293;28;20402;-71
2023/01/08 07:29:43;;;;;;;;;;;17.30;99.90;;;;;;5052094;28;19904;-71
2023/01/08 07:32:10;;;;;;;;;;;17.40;99.90;;;;;;5052251;28;19905;-71
2023/01/08 07:34:37;;;;;;;;;;;17.70;99.90;;;;;;5052062;28;19911;-71
2023/01/08 07:37:03;;;;;;;;;;;18.00;99.90;;;;;;5052458;28;19936;-71
2023/01/08 07:39:30;;;;;;;;;;;18.00;99.90;;;;;;5051882;28;19905;-71
2023/01/08 07:41:56;;;;;;;;;;;17.60;99.90;;;;;;5068467;28;19966;-71
2023/01/08 07:44:22;;;;;;;;;;;18.00;99.90;;;;;;5072627;28;19909;-70
2023/01/08 07:46:48;;;;;;;;;;;18.40;99.90;;;;;;5072269;28;19926;-71
2023/01/08 07:49:17;;;;;;;;;;;18.50;99.90;;;;;;5072068;28;19905;-71
2023/01/08 07:51:46;;;;;;;;;;;18.80;99.90;;;;;;5071905;28;19919;-72
2023/01/08 07:54:12;;;;;;;;;;;18.60;99.90;;;;;;5072324;28;19931;-71
2023/01/08 07:56:39;;;;;;;;;;;18.50;99.90;;;;;;5071886;28;19905;-70
2023/01/08 07:59:04;;;;;;;;;;;18.20;99.90;;;;;;5072408;28;19994;-71
2023/01/08 08:01:30;;;;;;;;;;;18.00;99.90;;;;;;5063504;28;19940;-72
2023/01/08 08:03:56;;;;;;;;;;;17.80;99.90;;;;;;5051802;28;19905;-72
2023/01/08 08:06:22;;;;;;;;;;;17.60;99.90;;;;;;5051688;28;19908;-72
2023/01/08 08:08:48;;;;;;;;;;;17.50;99.90;;;;;;5051767;28;19971;-72
2023/01/08 08:11:14;;;;;;;;;;;17.50;99.90;;;;;;5062748;28;19959;-70
2023/01/08 08:13:43;;;;;;;;;;;17.40;99.90;;;;;;5071582;28;20276;-72
2023/01/08 08:16:10;;;;;;;;;;;17.00;99.90;;;;;;5071893;28;20377;-72
2023/01/08 08:18:39;;;;;;;;;;;17.00;99.90;;;;;;5071777;28;20007;-72
2023/01/08 08:21:06;;;;;;;;;;;16.90;99.90;;;;;;5071669;28;19954;-71
2023/01/08 08:23:32;;;;;;;;;;;16.90;99.90;;;;;;5071488;28;20034;-71
2023/01/08 08:26:00;;;;;;;;;;;16.90;99.90;;;;;;5071546;28;19950;-72
2023/01/08 08:28:27;;;;;;;;;;;16.90;99.90;;;;;;5071476;28;19904;-72
2023/01/08 08:30:54;;;;;;;;;;;16.80;99.90;;;;;;5068330;28;19916;-72
2023/01/08 08:33:20;;;;;;;;;;;16.90;99.90;;;;;;5051484;28;20268;-72
2023/01/08 08:35:50;;;;;;;;;;;16.90;99.90;;;;;;5051497;28;19908;-72
2023/01/08 08:38:17;;;;;;;;;;;16.90;99.90;;;;;;5051137;28;20004;-72
2023/01/08 08:40:52;;;;;;;;;;;17.00;99.90;;;;;;5057650;28;19938;-74
2023/01/08 08:43:18;;;;;;;;;;;17.20;99.90;;;;;;5071087;28;19904;-72
2023/01/08 08:45:44;;;;;;;;;;;17.30;99.90;;;;;;5071271;28;19965;-72
2023/01/08 08:48:22;;;;;;;;;;;17.40;99.90;;;;;;5071054;28;19935;-73
2023/01/08 08:50:51;;;;;;;;;;;17.30;99.90;;;;;;5071177;28;19966;-72
2023/01/08 08:53:17;;;;;;;;;;;17.30;99.90;;;;;;5070972;28;19974;-73
2023/01/08 08:55:43;;;;;;;;;;;17.40;99.90;;;;;;5056284;28;20379;-72
2023/01/08 08:58:10;;;;;;;;;;;17.50;99.90;;;;;;5074724;28;19908;-72
2023/01/08 09:00:38;;;;;;;;;;;17.60;99.90;;;;;;5073449;28;19912;-70
2023/01/08 09:03:05;;;;;;;;;;;17.60;99.90;;;;;;5054401;28;19905;-73
2023/01/08 09:05:34;;;;;;;;;;;17.70;99.90;;;;;;5054057;28;19905;-71
2023/01/08 09:08:00;;;;;;;;;;;17.80;99.90;;;;;;5054160;28;19912;-72
2023/01/08 09:10:25;;;;;;;;;;;17.50;99.90;;;;;;5058055;28;19916;-72
2023/01/08 09:12:52;;;;;;;;;;;17.40;99.90;;;;;;5074208;28;20336;-72
2023/01/08 09:15:19;;;;;;;;;;;17.30;99.90;;;;;;5074371;28;19915;-71
2023/01/08 09:17:47;;;;;;;;;;;17.20;99.90;;;;;;5074815;28;19913;-71
2023/01/08 09:20:14;;;;;;;;;;;17.30;99.90;;;;;;5074695;28;19958;-71
2023/01/08 09:22:40;;;;;;;;;;;17.00;99.90;;;;;;5075131;28;19904;-71
2023/01/08 09:25:06;;;;;;;;;;;17.10;99.90;;;;;;5075046;28;19981;-69
2023/01/08 09:27:31;;;;;;;;;;;17.30;99.90;;;;;;5074800;28;19911;-71
2023/01/08 09:29:57;;;;;;;;;;;17.70;99.90;;;;;;5075057;28;19955;-71
2023/01/08 09:32:24;;;;;;;;;;;18.00;99.90;;;;;;5059256;28;19909;-71
2023/01/08 09:34:50;;;;;;;;;;;18.00;99.90;;;;;;5054743;28;19904;-72
2023/01/08 09:37:17;;;;;;;;;;;18.00;99.90;;;;;;5036723;28;19905;-72
2023/01/08 09:39:42;;;;;;;;;;;17.80;99.90;;;;;;5054619;28;20349;-73
2023/01/08 09:42:10;;;;;;;;;;;18.10;99.90;;;;;;5072719;28;19912;-72
2023/01/08 09:44:37;;;;;;;;;;;18.00;99.90;;;;;;5056653;28;19934;-72
2023/01/08 09:47:04;;;;;;;;;;;18.40;99.90;;;;;;5056686;28;19916;-71
2023/01/08 09:49:40;;;;;;;;;;;18.50;99.90;;;;;;5074349;28;19998;-72
2023/01/08 09:52:15;;;;;;;;;;;18.60;99.90;;;;;;5073707;28;20012;-71
2023/01/08 09:54:44;;;;;;;;;;;18.70;99.90;;;;;;5074276;28;19905;-72
2023/01/08 09:57:13;;;;;;;;;;;18.80;99.90;;;;;;5073583;28;19904;-72
2023/01/08 09:59:41;;;;;;;;;;;18.60;99.90;;;;;;5073127;28;19920;-73
2023/01/08 10:02:34;;;;;;;;;;;18.70;99.90;;;;;;5073809;28;19908;-71
2023/01/08 10:05:00;;;;;;;;;;;18.80;99.90;;;;;;5071201;28;19904;-71
2023/01/08 10:07:26;;;;;;;;;;;19.10;99.90;;;;;;5072878;28;19945;-72
2023/01/08 10:09:53;;;;;;;;;;;19.20;99.90;;;;;;5073560;28;19920;-71
2023/01/08 10:12:37;;;;;;;;;;;19.10;99.90;;;;;;5053709;28;19924;-71
2023/01/08 10:15:05;;;;;;;;;;;19.10;99.90;;;;;;5053623;28;19908;-71
2023/01/08 10:17:37;;;;;;;;;;;19.00;99.90;;;;;;5053346;28;19912;-71
2023/01/08 10:20:14;;;;;;;;;;;19.20;99.90;;;;;;5053187;28;19947;-70
2023/01/08 10:22:40;;;;;;;;;;;19.20;99.90;;;;;;5053080;28;19904;-71
2023/01/08 10:25:07;;;;;;;;;;;18.90;99.90;;;;;;5052958;28;19911;-71
2023/01/08 10:27:36;;;;;;;;;;;19.10;99.90;;;;;;5052832;28;19923;-70
2023/01/08 10:30:06;;;;;;;;;;;19.10;99.90;;;;;;5032803;28;20325;-71
2023/01/08 10:32:33;;;;;;;;;;;19.00;99.90;;;;;;5052905;28;19913;-70
2023/01/08 10:35:02;;;;;;;;;;;19.00;99.90;;;;;;5052978;28;19980;-70
2023/01/08 10:37:30;;;;;;;;;;;19.10;99.90;;;;;;5052730;28;19950;-70
2023/01/08 10:40:22;;;;;;;;;;;19.20;99.90;;;;;;5052843;28;19912;-70
2023/01/08 10:42:49;;;;;;;;;;;19.20;99.90;;;;;;5068170;28;20015;-70
2023/01/08 10:45:19;;;;;;;;;;;19.10;99.90;;;;;;5072770;28;19911;-70
2023/01/08 10:47:46;;;;;;;;;;;19.20;99.90;;;;;;5054561;28;20011;-70
2023/01/08 10:50:23;;;;;;;;;;;19.20;99.90;;;;;;5073177;28;19920;-70
2023/01/08 10:52:58;;;;;;;;;;;19.20;99.90;;;;;;5072819;28;19904;-70
2023/01/08 10:55:28;;;;;;;;;;;19.10;99.90;;;;;;5055257;28;19908;-70
2023/01/08 10:57:55;;;;;;;;;;;19.20;99.90;;;;;;5072324;28;19904;-70
2023/01/08 11:00:27;;;;;;;;;;;19.20;99.90;;;;;;5072406;28;20356;-71
2023/01/08 11:02:54;;;;;;;;;;;19.20;99.90;;;;;;5052227;28;19951;-70
2023/01/08 11:05:29;;;;;;;;;;;19.30;99.90;;;;;;5052404;28;19905;-69
2023/01/08 11:07:57;;;;;;;;;;;19.20;99.90;;;;;;5052752;28;20003;-67
2023/01/08 11:10:28;;;;;;;;;;;19.20;99.90;;;;;;5034145;28;19927;-70
2023/01/08 11:12:55;;;;;;;;;;;19.40;99.90;;;;;;5051636;28;19909;-71
2023/01/08 11:15:29;;;;;;;;;;;19.50;99.90;;;;;;5052007;28;19909;-71
2023/01/08 11:18:03;;;;;;;;;;;19.20;99.90;;;;;;5051627;28;19912;-70
2023/01/08 11:20:29;;;;;;;;;;;19.40;99.90;;;;;;5052349;28;19948;-71
2023/01/08 11:23:17;;;;;;;;;;;19.50;99.90;;;;;;5052251;28;19905;-71
2023/01/08 11:26:03;;;;;;;;;;;19.50;99.90;;;;;;5042470;28;19913;-69
2023/01/08 11:28:37;;;;;;;;;;;19.60;99.90;;;;;;5025145;28;19912;-68
2023/01/08 11:31:10;;;;;;;;;;;19.50;99.90;;;;;;5051967;28;19939;-68
2023/01/08 11:33:38;;;;;;;;;;;19.50;99.90;;;;;;5050679;28;19944;-66
2023/01/08 11:36:11;;;;;;;;;;;19.20;99.90;;;;;;5040497;28;19974;-70
2023/01/08 11:38:37;;;;;;;;;;;18.90;99.90;;;;;;5049410;28;19951;-69
2023/01/08 11:41:11;;;;;;;;;;;19.30;99.90;;;;;;5051002;28;19913;-67
2023/01/08 11:43:37;;;;;;;;;;;19.20;99.90;;;;;;5051433;28;19928;-68
2023/01/08 11:46:15;;;;;;;;;;;19.20;99.90;;;;;;5051665;28;19909;-68
2023/01/08 11:49:00;;;;;;;;;;;19.20;99.90;;;;;;5058579;28;19926;-69
2023/01/08 11:51:33;;;;;;;;;;;19.10;99.90;;;;;;5048751;28;19924;-72
2023/01/08 11:54:17;;;;;;;;;;;19.20;99.90;;;;;;5051299;28;19909;-66
2023/01/08 11:56:58;;;;;;;;;;;19.20;99.90;;;;;;5049889;28;19948;-73
2023/01/08 11:59:25;;;;;;;;;;;19.40;99.90;;;;;;5049782;28;19943;-66
2023/01/08 12:01:59;;;;;;;;;;;19.30;99.90;;;;;;5052176;28;19959;-66
2023/01/08 12:04:30;;;;;;;;;;;19.20;99.90;;;;;;5051703;28;19905;-72
2023/01/08 12:07:21;;;;;;;;;;;18.60;99.90;;;;;;5040026;28;19916;-73
2023/01/08 12:10:09;;;;;;;;;;;18.50;99.90;;;;;;5070012;28;19918;-72
2023/01/08 12:12:34;;;;;;;;;;;18.60;99.90;;;;;;5059356;28;19954;-72
2023/01/08 12:15:22;;;;;;;;;;;18.90;99.90;;;;;;5071407;28;20041;-72
2023/01/08 12:18:02;;;;;;;;;;;19.10;99.90;;;;;;5071369;28;19905;-71
2023/01/08 12:20:28;;;;;;;;;;;18.90;99.90;;;;;;5050519;28;20440;-70
2023/01/08 12:23:12;;;;;;;;;;;18.80;99.90;;;;;;5050875;28;19987;-68
2023/01/08 12:25:56;;;;;;;;;;;19.10;99.90;;;;;;5037726;28;19909;-68
2023/01/08 12:28:40;;;;;;;;;;;18.50;99.90;;;;;;5032463;28;19909;-70
2023/01/08 12:31:27;;;;;;;;;;;18.50;99.90;;;;;;5050681;28;20008;-70
2023/01/08 12:33:56;;;;;;;;;;;18.50;99.90;;;;;;5034749;28;19924;-70
2023/01/08 12:36:25;;;;;;;;;;;18.90;99.90;;;;;;5053530;28;19919;-70
2023/01/08 12:38:58;;;;;;;;;;;18.80;99.90;;;;;;5033425;28;20253;-67
2023/01/08 12:41:25;;;;;;;;;;;19.00;99.90;;;;;;5046832;28;19909;-71
2023/01/08 12:43:53;;;;;;;;;;;19.20;99.90;;;;;;5054384;28;19958;-70
2023/01/08 12:46:20;;;;;;;;;;;19.20;99.90;;;;;;5052893;28;20225;-68
2023/01/08 12:48:48;;;;;;;;;;;19.10;99.90;;;;;;5055193;28;19904;-71
2023/01/08 12:51:32;;;;;;;;;;;19.00;99.90;;;;;;5053177;28;20317;-71
2023/01/08 12:54:16;;;;;;;;;;;19.00;99.90;;;;;;5053487;28;20512;-72
2023/01/08 12:56:47;;;;;;;;;;;18.80;99.90;;;;;;5041386;28;19913;-71
2023/01/08 12:59:45;;;;;;;;;;;19.00;99.90;;;;;;5035493;28;19913;-72
2023/01/08 13:02:29;;;;;;;;;;;19.20;99.90;;;;;;4992419;28;19969;-72
2023/01/08 13:04:55;;;;;;;;;;;19.20;99.90;;;;;;4991669;28;19909;-74
2023/01/08 13:07:29;;;;;;;;;;;19.50;99.90;;;;;;4992703;28;19917;-71
2023/01/08 13:10:05;;;;;;;;;;;19.50;99.90;;;;;;4992407;28;19973;-72
2023/01/08 13:12:35;;;;;;;;;;;19.60;99.90;;;;;;4992368;28;20262;-73
2023/01/08 13:15:08;;;;;;;;;;;19.50;99.90;;;;;;4993218;28;19905;-67
2023/01/08 13:17:36;;;;;;;;;;;19.50;99.90;;;;;;4992111;28;20117;-71
2023/01/08 13:20:03;;;;;;;;;;;19.60;99.90;;;;;;4973191;28;19906;-72
2023/01/08 13:22:30;;;;;;;;;;;19.70;99.90;;;;;;4973501;28;19906;-72
2023/01/08 13:25:11;;;;;;;;;;;19.80;99.90;;;;;;4973595;28;19962;-71
2023/01/08 13:28:07;;;;;;;;;;;19.80;99.90;;;;;;4992292;28;20227;-70
2023/01/08 13:30:38;;;;;;;;;;;19.70;99.90;;;;;;4990831;28;19964;-72
2023/01/08 13:33:23;;;;;;;;;;;19.60;99.90;;;;;;4992454;28;20325;-72
2023/01/08 13:35:49;;;;;;;;;;;19.40;99.90;;;;;;4991514;28;19909;-70
2023/01/08 13:38:16;;;;;;;;;;;19.30;99.90;;;;;;5035569;28;19921;-72
2023/01/08 13:40:42;;;;;;;;;;;19.30;99.90;;;;;;5049482;28;19951;-70
2023/01/08 13:43:17;;;;;;;;;;;19.20;99.90;;;;;;5053845;28;19943;-70
2023/01/08 13:46:05;;;;;;;;;;;19.20;99.90;;;;;;5036393;28;19931;-69
2023/01/08 13:48:49;;;;;;;;;;;19.30;99.90;;;;;;5034898;28;19920;-69
2023/01/08 13:51:27;;;;;;;;;;;19.30;99.90;;;;;;5033709;28;19917;-65
2023/01/08 13:53:53;;;;;;;;;;;19.40;99.90;;;;;;5034108;28;19909;-69
2023/01/08 13:56:20;;;;;;;;;;;19.50;99.90;;;;;;5029784;28;20348;-71
2023/01/08 13:58:51;;;;;;;;;;;19.50;99.90;;;;;;5053451;28;20368;-71
2023/01/08 14:01:20;;;;;;;;;;;19.60;99.90;;;;;;5051168;28;19938;-69
2023/01/08 14:03:47;;;;;;;;;;;19.40;99.90;;;;;;5037411;28;19985;-72
2023/01/08 14:06:20;;;;;;;;;;;19.50;99.90;;;;;;5053102;28;20004;-69
2023/01/08 14:08:50;;;;;;;;;;;19.50;99.90;;;;;;5051032;28;20313;-70
2023/01/08 14:11:17;;;;;;;;;;;19.50;99.90;;;;;;5052221;28;19928;-70
2023/01/08 14:13:43;;;;;;;;;;;19.50;99.90;;;;;;5053266;28;20429;-69
2023/01/08 14:16:13;;;;;;;;;;;19.50;99.90;;;;;;5052842;28;19913;-67
2023/01/08 14:18:45;;;;;;;;;;;19.30;99.90;;;;;;5053607;28;20006;-71
2023/01/08 14:21:12;;;;;;;;;;;19.20;99.90;;;;;;5049764;28;19909;-70
2023/01/08 14:23:45;;;;;;;;;;;19.20;99.90;;;;;;5052013;28;19944;-71
2023/01/08 14:26:18;;;;;;;;;;;19.10;99.90;;;;;;5052992;28;19908;-75
2023/01/08 14:28:49;;;;;;;;;;;19.00;99.90;;;;;;5052041;28;20368;-73
2023/01/08 14:31:21;;;;;;;;;;;19.00;99.90;;;;;;5033276;28;19917;-74